Time;durP1;ratioP1;P1;durP2;ratioP2;P2;SDS_P1;SDS_P2;PMS_P1;PMS_P2;Temp;Humidity;BMP_temperature;BMP_pressure;BME280_temperature;BME280_humidity;BME280_pressure;Samples;Min_cycle;Max_cycle;Signal;HPM_P1;HPM_P2
2020/12/11 00:00:19;;;;;;;27.45;16.67;;;;;;;3.13;68.83;94656.53;5050133;28;20057;-45
2020/12/11 00:02:46;;;;;;;27.58;16.50;;;;;;;3.12;68.87;94641.56;5050100;28;20057;-47
2020/12/11 00:05:13;;;;;;;30.55;17.90;;;;;;;3.03;69.17;94642.38;5051492;28;20041;-46
2020/12/11 00:07:41;;;;;;;27.45;17.00;;;;;;;3.10;69.29;94638.44;5050668;28;20055;-49
2020/12/11 00:10:13;;;;;;;27.33;16.30;;;;;;;3.00;69.53;94629.66;5051860;28;20048;-50
2020/12/11 00:12:40;;;;;;;28.67;16.58;;;;;;;3.03;69.53;94623.66;5051150;28;20453;-46
2020/12/11 00:15:07;;;;;;;28.58;16.80;;;;;;;3.07;69.48;94620.38;5049662;28;20045;-47
2020/12/11 00:17:34;;;;;;;28.02;16.58;;;;;;;3.11;69.30;94623.97;5050727;28;20567;-46
2020/12/11 00:20:04;;;;;;;26.50;15.85;;;;;;;3.13;68.83;94619.88;5051315;28;20053;-50
2020/12/11 00:22:31;;;;;;;28.42;17.08;;;;;;;3.15;68.38;94619.56;5053173;28;20068;-45
2020/12/11 00:24:57;;;;;;;27.17;16.45;;;;;;;3.09;68.70;94626.97;5055191;28;20041;-46
2020/12/11 00:27:24;;;;;;;28.55;16.50;;;;;;;2.95;68.64;94594.28;5054356;28;20053;-44
2020/12/11 00:29:50;;;;;;;27.67;17.70;;;;;;;3.00;68.96;94624.31;5054683;28;20617;-46
2020/12/11 00:32:17;;;;;;;27.88;15.77;;;;;;;2.90;69.00;94624.63;5055136;28;20049;-45
2020/12/11 00:34:44;;;;;;;28.05;17.02;;;;;;;2.97;68.93;94616.91;5055612;28;20048;-45
2020/12/11 00:37:11;;;;;;;27.00;16.00;;;;;;;3.03;68.81;94622.88;5054190;28;20122;-46
2020/12/11 00:39:38;;;;;;;27.92;16.38;;;;;;;3.12;68.75;94628.19;5053992;28;20045;-54
2020/12/11 00:42:04;;;;;;;29.52;15.82;;;;;;;3.18;68.60;94624.28;5054257;28;20133;-50
2020/12/11 00:44:31;;;;;;;28.17;16.08;;;;;;;3.05;69.31;94626.00;5053443;28;20049;-48
2020/12/11 00:47:02;;;;;;;26.48;16.55;;;;;;;2.97;69.84;94619.59;5053872;28;20149;-45
2020/12/11 00:49:29;;;;;;;26.10;15.95;;;;;;;2.87;70.05;94611.13;5054392;28;20049;-50
2020/12/11 00:51:56;;;;;;;25.92;15.35;;;;;;;2.93;69.59;94615.97;5053753;28;20072;-46
2020/12/11 00:54:26;;;;;;;26.63;15.77;;;;;;;3.01;69.29;94603.72;5053235;28;20452;-46
2020/12/11 00:56:52;;;;;;;26.80;15.27;;;;;;;3.13;69.44;94603.06;5052478;28;20139;-51
2020/12/11 00:59:19;;;;;;;29.40;16.30;;;;;;;3.13;68.90;94589.72;5053349;28;20120;-50
2020/12/11 01:01:46;;;;;;;28.20;16.52;;;;;;;3.12;68.08;94601.47;5054356;28;20049;-51
2020/12/11 01:04:12;;;;;;;27.90;16.90;;;;;;;3.04;68.26;94593.16;5054648;28;20052;-51
2020/12/11 01:06:39;;;;;;;30.33;16.88;;;;;;;2.98;68.58;94599.00;5054125;28;20057;-46
2020/12/11 01:09:05;;;;;;;26.55;16.13;;;;;;;2.83;69.36;94608.28;5053186;28;20058;-49
2020/12/11 01:11:32;;;;;;;30.85;17.25;;;;;;;2.75;70.08;94607.19;5054136;28;20045;-47
2020/12/11 01:13:59;;;;;;;25.70;15.57;;;;;;;2.98;69.78;94602.44;5053867;28;20064;-50
2020/12/11 01:16:25;;;;;;;27.63;16.08;;;;;;;2.95;69.19;94594.28;5053994;28;20045;-47
2020/12/11 01:18:56;;;;;;;27.88;15.73;;;;;;;2.88;70.24;94600.09;5054063;28;20426;-48
2020/12/11 01:21:24;;;;;;;27.00;16.13;;;;;;;2.92;69.90;94589.56;5054538;28;20413;-48
2020/12/11 01:23:51;;;;;;;29.17;15.88;;;;;;;3.01;69.32;94604.47;5053119;28;20471;-52
2020/12/11 01:26:17;;;;;;;28.63;16.40;;;;;;;2.99;69.71;94592.53;5053914;28;20465;-45
2020/12/11 01:28:44;;;;;;;29.35;16.80;;;;;;;3.07;70.08;94593.66;5053951;28;20053;-45
2020/12/11 01:31:10;;;;;;;29.65;17.30;;;;;;;2.97;69.67;94590.19;5052778;28;20052;-50
2020/12/11 01:33:37;;;;;;;28.45;16.17;;;;;;;2.99;70.44;94590.69;5053627;28;20057;-47
2020/12/11 01:36:03;;;;;;;28.08;15.93;;;;;;;2.84;70.23;94572.47;5053104;28;20076;-47
2020/12/11 01:38:30;;;;;;;19.98;12.38;;;;;;;2.79;67.40;94592.13;5053463;28;20136;-47
2020/12/11 01:40:59;;;;;;;22.17;13.52;;;;;;;2.73;67.72;94600.56;5053480;28;20053;-48
2020/12/11 01:43:25;;;;;;;20.48;13.23;;;;;;;2.70;68.02;94599.34;5053382;28;20049;-48
2020/12/11 01:45:52;;;;;;;19.60;12.23;;;;;;;2.84;67.25;94593.81;5053204;28;20056;-48
2020/12/11 01:48:20;;;;;;;18.83;12.00;;;;;;;2.84;66.83;94571.69;5053519;28;20437;-48
2020/12/11 01:50:50;;;;;;;20.48;12.88;;;;;;;3.00;66.20;94591.47;5053184;28;20088;-47
2020/12/11 01:53:17;;;;;;;17.83;12.00;;;;;;;2.95;66.21;94589.72;5052060;28;20045;-48
2020/12/11 01:55:49;;;;;;;19.77;12.80;;;;;;;2.92;66.40;94586.91;5051273;28;20049;-48
2020/12/11 01:58:26;;;;;;;20.55;12.68;;;;;;;3.00;65.68;94580.78;5053294;28;20068;-47
2020/12/11 02:00:55;;;;;;;19.40;11.82;;;;;;;2.89;65.95;94582.97;5053505;28;20528;-48
2020/12/11 02:03:23;;;;;;;19.40;13.32;;;;;;;2.82;66.21;94577.31;5051677;28;20060;-46
2020/12/11 02:05:50;;;;;;;20.13;12.40;;;;;;;2.97;65.98;94582.19;5051589;28;20296;-47
2020/12/11 02:08:18;;;;;;;19.02;12.18;;;;;;;3.10;65.20;94583.09;5052856;28;20052;-47
2020/12/11 02:10:46;;;;;;;21.27;13.20;;;;;;;2.84;65.14;94521.72;5053748;28;20550;-49
2020/12/11 02:13:13;;;;;;;18.73;11.77;;;;;;;3.21;64.83;94576.31;5019065;28;20052;-47
2020/12/11 02:15:40;;;;;;;17.83;11.38;;;;;;;3.08;64.46;94541.75;5052469;28;20045;-49
2020/12/11 02:18:07;;;;;;;18.85;12.10;;;;;;;3.15;64.83;94574.13;5051550;28;20140;-49
2020/12/11 02:20:33;;;;;;;16.42;10.55;;;;;;;3.12;64.83;94572.91;5051378;28;20053;-50
2020/12/11 02:23:00;;;;;;;16.75;11.38;;;;;;;2.93;65.00;94559.09;5051229;28;20053;-49
2020/12/11 02:25:26;;;;;;;16.33;10.82;;;;;;;2.89;65.13;94558.91;5051979;28;20048;-50
2020/12/11 02:27:53;;;;;;;17.52;11.55;;;;;;;2.92;65.06;94557.50;5052535;28;20053;-50
2020/12/11 02:30:19;;;;;;;18.80;11.55;;;;;;;2.83;65.53;94552.19;5052604;28;20065;-48
2020/12/11 02:32:46;;;;;;;18.23;11.48;;;;;;;2.89;65.46;94550.13;5052162;28;20079;-49
2020/12/11 02:35:12;;;;;;;17.13;10.45;;;;;;;2.90;65.40;94533.78;5052087;28;20405;-50
2020/12/11 02:37:39;;;;;;;14.93;10.30;;;;;;;2.90;65.37;94541.81;5050808;28;20132;-50
2020/12/11 02:40:07;;;;;;;17.42;10.73;;;;;;;2.83;65.57;94533.50;5052102;28;20524;-46
2020/12/11 02:42:34;;;;;;;20.38;11.07;;;;;;;2.89;65.68;94534.88;5052111;28;20371;-47
2020/12/11 02:45:01;;;;;;;18.58;11.45;;;;;;;2.98;65.55;94541.00;5051327;28;20226;-49
2020/12/11 02:47:32;;;;;;;18.88;11.43;;;;;;;3.00;65.85;94540.69;5051297;28;20446;-49
2020/12/11 02:50:03;;;;;;;19.75;12.23;;;;;;;3.04;65.61;94542.41;5051941;28;20044;-50
2020/12/11 02:52:30;;;;;;;19.45;12.15;;;;;;;2.88;66.28;94525.31;5051892;28;20441;-48
2020/12/11 02:54:56;;;;;;;20.02;12.35;;;;;;;2.92;66.02;94526.22;5051634;28;20049;-49
2020/12/11 02:57:23;;;;;;;20.60;12.95;;;;;;;3.09;65.82;94525.44;5051002;28;20080;-49
2020/12/11 02:59:49;;;;;;;22.45;13.48;;;;;;;2.92;66.75;94504.84;5051837;28;20056;-49
2020/12/11 03:02:16;;;;;;;24.17;14.73;;;;;;;2.94;67.06;94509.91;5050614;28;20056;-48
2020/12/11 03:04:43;;;;;;;22.90;13.50;;;;;;;3.02;67.02;94509.88;5051524;28;20076;-50
2020/12/11 03:07:09;;;;;;;24.15;14.30;;;;;;;3.19;66.78;94513.59;5050869;28;20079;-49
2020/12/11 03:09:35;;;;;;;22.63;13.88;;;;;;;3.23;67.13;94506.50;5051729;28;20049;-49
2020/12/11 03:12:02;;;;;;;23.80;13.60;;;;;;;3.06;67.34;94494.00;5051380;28;20399;-50
2020/12/11 03:14:28;;;;;;;24.30;14.85;;;;;;;3.01;67.41;94473.56;5052183;28;20140;-47
2020/12/11 03:16:54;;;;;;;23.30;13.82;;;;;;;3.14;67.50;94495.06;5050743;28;20076;-49
2020/12/11 03:19:21;;;;;;;23.63;14.23;;;;;;;3.07;68.04;94495.56;5051818;28;20140;-47
2020/12/11 03:21:47;;;;;;;27.90;16.10;;;;;;;2.89;68.76;94492.13;5051995;28;20490;-48
2020/12/11 03:24:14;;;;;;;26.25;15.10;;;;;;;2.73;69.30;94483.06;5051380;28;20127;-47
2020/12/11 03:26:40;;;;;;;24.30;14.50;;;;;;;2.78;69.50;94502.38;5050715;28;20128;-47
2020/12/11 03:29:06;;;;;;;27.50;16.05;;;;;;;2.83;69.13;94489.94;5051659;28;20103;-46
2020/12/11 03:31:33;;;;;;;28.58;15.85;;;;;;;2.71;69.58;94477.28;5051143;28;20506;-46
2020/12/11 03:33:59;;;;;;;26.50;14.90;;;;;;;2.58;70.14;94482.47;5051099;28;20053;-45
2020/12/11 03:36:26;;;;;;;26.92;15.50;;;;;;;2.38;70.46;94477.00;5050517;28;20131;-45
2020/12/11 03:38:52;;;;;;;29.88;16.48;;;;;;;2.34;70.61;94458.19;5050995;28;20059;-45
2020/12/11 03:41:19;;;;;;;26.10;15.35;;;;;;;2.50;70.64;94477.13;5050935;28;20064;-45
2020/12/11 03:43:45;;;;;;;27.05;15.38;;;;;;;2.33;70.80;94462.72;5051186;28;20240;-47
2020/12/11 03:46:19;;;;;;;28.95;16.45;;;;;;;2.39;71.14;94476.69;5049406;28;20056;-45
2020/12/11 03:48:48;;;;;;;28.85;16.00;;;;;;;2.36;71.13;94466.63;5051433;28;20128;-45
2020/12/11 03:51:19;;;;;;;30.30;16.92;;;;;;;2.29;70.98;94456.44;5051481;28;20397;-45
2020/12/11 03:53:46;;;;;;;32.90;17.08;;;;;;;2.43;71.12;94461.59;5050198;28;20052;-46
2020/12/11 03:56:14;;;;;;;32.28;17.13;;;;;;;2.44;70.84;94463.19;5050504;28;20498;-44
2020/12/11 03:58:42;;;;;;;32.55;17.77;;;;;;;2.26;71.14;94435.72;5055110;28;20053;-47
2020/12/11 04:01:09;;;;;;;32.60;17.85;;;;;;;2.37;71.13;94462.84;5055140;28;20127;-46
2020/12/11 04:03:36;;;;;;;30.67;17.05;;;;;;;2.29;71.11;94461.00;5054790;28;20496;-45
2020/12/11 04:06:10;;;;;;;31.50;18.02;;;;;;;2.26;71.37;94456.28;5054101;28;20123;-45
2020/12/11 04:08:38;;;;;;;30.60;17.00;;;;;;;2.34;71.06;94456.28;5055009;28;20139;-51
2020/12/11 04:11:10;;;;;;;32.40;17.50;;;;;;;2.39;70.76;94444.66;5053562;28;20068;-48
2020/12/11 04:13:37;;;;;;;33.88;17.15;;;;;;;2.34;70.76;94466.19;5075619;22;20276;-44
2020/12/11 04:16:04;;;;;;;32.17;17.60;;;;;;;2.31;70.80;94430.22;5073668;28;20072;-45
2020/12/11 04:18:30;;;;;;;30.63;17.02;;;;;;;2.27;70.76;94431.16;5074285;28;20072;-45
2020/12/11 04:20:57;;;;;;;30.42;16.95;;;;;;;2.10;71.20;94434.63;5074082;28;20052;-48
2020/12/11 04:23:25;;;;;;;32.97;17.35;;;;;;;1.88;71.71;94424.91;5074171;28;20049;-48
2020/12/11 04:25:52;;;;;;;29.38;16.90;;;;;;;2.05;71.41;94445.47;5073422;28;20044;-44
2020/12/11 04:28:20;;;;;;;32.03;17.00;;;;;;;2.12;71.06;94451.13;5074089;28;20052;-45
2020/12/11 04:30:48;;;;;;;33.97;17.20;;;;;;;2.16;70.67;94451.28;5074099;28;20056;-49
2020/12/11 04:33:15;;;;;;;34.15;18.38;;;;;;;2.15;70.55;94436.38;5074327;28;20506;-49
2020/12/11 04:35:42;;;;;;;28.67;15.98;;;;;;;1.99;71.13;94436.84;5073601;28;20459;-50
2020/12/11 04:38:08;;;;;;;30.95;16.48;;;;;;;1.88;71.62;94432.91;5073872;28;20090;-52
2020/12/11 04:40:35;;;;;;;27.73;16.08;;;;;;;1.69;71.81;94401.25;5074425;28;20582;-44
2020/12/11 04:43:04;;;;;;;31.98;16.98;;;;;;;1.83;71.74;94422.41;5074244;28;20148;-48
2020/12/11 04:45:31;;;;;;;30.52;16.90;;;;;;;1.66;72.11;94428.53;5073031;28;20040;-48
2020/12/11 04:48:00;;;;;;;31.70;17.33;;;;;;;1.68;72.21;94428.19;5073529;28;20052;-47
2020/12/11 04:50:26;;;;;;;28.00;15.80;;;;;;;1.60;72.41;94421.75;5073666;28;20049;-47
2020/12/11 04:52:56;;;;;;;35.17;17.92;;;;;;;1.56;72.68;94410.94;5073698;28;20232;-50
2020/12/11 04:55:23;;;;;;;30.85;17.40;;;;;;;1.56;72.57;94418.13;5072922;28;20041;-48
2020/12/11 04:57:51;;;;;;;33.03;17.13;;;;;;;1.63;72.32;94418.47;5073550;28;20095;-50
2020/12/11 05:00:23;;;;;;;29.95;17.17;;;;;;;1.67;72.25;94405.31;5073280;28;20079;-48
2020/12/11 05:02:50;;;;;;;35.30;17.52;;;;;;;1.54;72.71;94402.47;5072292;28;20076;-48
2020/12/11 05:05:17;;;;;;;31.38;16.95;;;;;;;1.62;72.45;94384.91;5073122;28;20493;-50
2020/12/11 05:07:44;;;;;;;30.65;16.38;;;;;;;1.54;72.75;94386.47;5073262;28;20154;-48
2020/12/11 05:10:13;;;;;;;35.17;18.10;;;;;;;1.50;72.99;94382.09;5072484;28;20045;-52
2020/12/11 05:12:43;;;;;;;31.60;18.63;;;;;;;1.34;73.23;94379.88;5072797;28;20056;-49
2020/12/11 05:15:17;;;;;;;34.22;17.70;;;;;;;1.23;73.91;94388.47;5073042;28;20429;-49
2020/12/11 05:17:43;;;;;;;35.85;17.08;;;;;;;1.27;73.47;94378.75;5073064;28;20121;-51
2020/12/11 05:20:12;;;;;;;33.10;17.05;;;;;;;1.23;73.43;94383.13;5072877;28;20517;-49
2020/12/11 05:22:40;;;;;;;31.38;16.85;;;;;;;1.10;73.71;94374.94;5072615;28;20178;-49
2020/12/11 05:25:14;;;;;;;34.08;17.50;;;;;;;1.15;73.77;94382.81;5072932;28;20083;-47
2020/12/11 05:27:46;;;;;;;30.80;16.52;;;;;;;1.10;74.61;94374.16;5072577;28;20597;-48
2020/12/11 05:30:18;;;;;;;31.88;16.05;;;;;;;1.26;73.96;94361.19;5073322;28;20131;-55
2020/12/11 05:32:47;;;;;;;27.55;15.10;;;;;;;1.32;73.27;94349.28;5072970;28;20052;-49
2020/12/11 05:35:21;;;;;;;28.92;15.13;;;;;;;1.38;72.98;94353.38;5073025;28;20368;-47
2020/12/11 05:37:55;;;;;;;28.58;15.00;;;;;;;1.26;73.50;94355.88;5072822;28;20079;-49
2020/12/11 05:40:30;;;;;;;29.02;15.25;;;;;;;1.28;73.34;94354.47;5073090;28;20061;-52
2020/12/11 05:43:03;;;;;;;32.22;16.92;;;;;;;1.31;73.29;94347.75;5072937;28;20059;-50
2020/12/11 05:45:30;;;;;;;31.42;14.95;;;;;;;1.34;73.26;94355.09;5072416;28;20048;-50
2020/12/11 05:47:59;;;;;;;26.98;14.10;;;;;;;1.30;73.30;94346.16;5072884;28;20609;-50
2020/12/11 05:50:25;;;;;;;30.00;16.33;;;;;;;1.29;72.83;94340.03;5072866;28;20127;-54
2020/12/11 05:52:53;;;;;;;28.65;15.43;;;;;;;1.12;73.53;94340.81;5072861;28;20478;-50
2020/12/11 05:55:21;;;;;;;28.63;15.30;;;;;;;1.21;73.79;94348.03;5071090;28;20125;-53
2020/12/11 05:57:58;;;;;;;32.15;16.40;;;;;;;1.11;73.97;94346.47;5072928;28;20131;-50
2020/12/11 06:00:25;;;;;;;31.52;16.40;;;;;;;0.94;74.49;94331.22;5072872;28;20567;-51
2020/12/11 06:02:54;;;;;;;31.90;16.35;;;;;;;1.00;74.81;94343.28;5072452;28;20059;-48
2020/12/11 06:05:22;;;;;;;31.55;16.80;;;;;;;0.91;75.29;94334.47;5071560;28;20499;-49
2020/12/11 06:07:51;;;;;;;30.25;15.95;;;;;;;1.10;74.63;94347.53;5072493;28;20048;-47
2020/12/11 06:10:20;;;;;;;34.22;16.50;;;;;;;1.09;74.32;94338.75;5072264;28;20148;-48
2020/12/11 06:12:47;;;;;;;32.65;17.10;;;;;;;1.24;74.40;94334.09;5070709;28;20136;-48
2020/12/11 06:15:23;;;;;;;33.83;17.55;;;;;;;1.33;74.11;94334.88;5072118;28;20041;-47
2020/12/11 06:18:19;;;;;;;32.38;16.45;;;;;;;1.13;74.22;94337.03;5071928;28;20056;-50
2020/12/11 06:20:47;;;;;;;30.33;15.38;;;;;;;1.12;74.29;94335.47;5071671;28;20044;-50
2020/12/11 06:23:27;;;;;;;34.63;16.75;;;;;;;1.04;75.20;94349.59;5068580;28;20343;-50
2020/12/11 06:25:56;;;;;;;35.55;18.50;;;;;;;1.19;74.47;94328.91;5067626;28;20128;-50
2020/12/11 06:28:34;;;;;;;31.52;16.27;;;;;;;1.27;74.37;94326.25;5068456;28;20467;-49
2020/12/11 06:31:22;;;;;;;32.03;16.85;;;;;;;1.29;73.74;94317.94;5068366;28;20460;-49
2020/12/11 06:33:52;;;;;;;32.25;16.80;;;;;;;1.23;73.61;94319.97;5068157;28;20501;-49
2020/12/11 06:36:20;;;;;;;31.80;16.42;;;;;;;0.84;74.38;94358.91;5071331;22;20128;-46
2020/12/11 06:38:54;;;;;;;33.22;17.65;;;;;;;0.88;74.54;94303.97;5028671;28;20054;-49
2020/12/11 06:41:26;;;;;;;32.58;17.73;;;;;;;0.99;74.60;94320.41;5028885;28;20049;-47
2020/12/11 06:43:56;;;;;;;35.08;17.20;;;;;;;1.02;74.76;94309.16;5029323;28;20073;-49
2020/12/11 06:46:27;;;;;;;31.48;16.92;;;;;;;1.03;74.76;94299.28;5027930;28;20510;-47
2020/12/11 06:49:22;;;;;;;37.58;18.63;;;;;;;1.03;74.99;94308.03;5028863;28;20057;-46
2020/12/11 06:51:48;;;;;;;33.92;17.02;;;;;;;1.03;74.81;94300.06;5028691;28;20067;-47
2020/12/11 06:54:21;;;;;;;30.20;16.42;;;;;;;1.05;74.64;94300.53;5028564;28;20054;-50
2020/12/11 06:56:55;;;;;;;33.17;17.07;;;;;;;1.04;74.72;94285.66;5027596;28;20124;-47
2020/12/11 06:59:26;;;;;;;32.00;16.38;;;;;;;1.08;75.19;94286.59;5027296;28;20315;-48
2020/12/11 07:02:15;;;;;;;33.00;17.63;;;;;;;1.17;74.63;94273.28;5028216;28;20046;-47
2020/12/11 07:04:49;;;;;;;35.75;18.00;;;;;;;1.36;74.12;94291.59;5028236;28;20053;-51
2020/12/11 07:07:26;;;;;;;34.25;16.88;;;;;;;1.28;74.40;94284.41;5027215;28;20088;-48
2020/12/11 07:09:53;;;;;;;33.55;18.15;;;;;;;1.41;73.98;94286.13;5028200;28;20057;-49
2020/12/11 07:12:19;;;;;;;34.70;18.08;;;;;;;1.22;74.18;94275.00;5028853;28;20434;-44
2020/12/11 07:14:47;;;;;;;34.45;18.05;;;;;;;1.05;74.68;94260.59;5028289;28;20053;-48
2020/12/11 07:17:26;;;;;;;36.60;17.63;;;;;;;1.16;74.44;94261.84;5027128;28;20046;-47
2020/12/11 07:19:56;;;;;;;36.05;17.48;;;;;;;1.13;74.94;94275.78;5028442;28;20050;-45
2020/12/11 07:22:22;;;;;;;31.85;16.60;;;;;;;1.16;74.19;94269.81;5028214;28;20096;-47
2020/12/11 07:24:49;;;;;;;31.38;16.33;;;;;;;1.40;73.58;94282.69;5028277;28;20053;-46
2020/12/11 07:27:15;;;;;;;29.75;16.05;;;;;;;1.46;73.23;94285.97;5027462;28;20056;-47
2020/12/11 07:29:49;;;;;;;31.52;16.48;;;;;;;1.32;73.95;94286.13;5026456;28;20569;-46
2020/12/11 07:32:20;;;;;;;32.15;18.08;;;;;;;1.42;73.91;94289.56;5026795;28;20049;-44
2020/12/11 07:34:47;;;;;;;31.10;18.00;;;;;;;1.52;73.56;94284.69;5014759;28;20085;-44
2020/12/11 07:37:15;;;;;;;31.05;16.33;;;;;;;1.69;72.98;94278.59;5013942;28;20050;-44
2020/12/11 07:39:42;;;;;;;34.13;17.35;;;;;;;1.83;72.28;94267.75;5014459;28;20125;-45
2020/12/11 07:42:09;;;;;;;35.85;18.30;;;;;;;1.88;72.32;94275.56;5014295;28;20108;-49
2020/12/11 07:44:38;;;;;;;34.75;18.50;;;;;;;1.76;72.44;94268.22;5014308;28;20526;-45
2020/12/11 07:47:11;;;;;;;34.88;18.85;;;;;;;1.37;73.62;94264.66;5012529;28;20117;-45
2020/12/11 07:49:42;;;;;;;31.80;16.60;;;;;;;1.22;74.91;94275.00;5014424;28;20132;-46
2020/12/11 07:52:10;;;;;;;38.88;18.52;;;;;;;1.21;75.49;94273.44;5014477;28;20471;-46
2020/12/11 07:54:38;;;;;;;33.67;18.42;;;;;;;1.46;73.76;94261.97;5014207;28;20042;-46
2020/12/11 07:57:12;;;;;;;32.80;17.05;;;;;;;1.64;73.44;94271.53;5012436;28;20137;-46
2020/12/11 07:59:41;;;;;;;;;;;;;;;1.71;72.86;94265.72;5014888;28;20141;-45
2020/12/11 08:02:08;;;;;;;32.20;15.82;;;;;;;1.75;72.54;94257.84;5013177;28;20024;-49
2020/12/11 08:04:36;;;;;;;29.83;16.50;;;;;;;1.74;72.59;94254.41;5014185;28;20073;-44
2020/12/11 08:07:04;;;;;;;31.98;15.52;;;;;;;1.74;72.22;94256.31;5012104;28;20078;-45
2020/12/11 08:09:31;;;;;;;30.33;15.27;;;;;;;1.79;72.40;94245.47;5014310;28;20053;-45
2020/12/11 08:12:10;;;;;;;30.92;16.48;;;;;;;1.81;72.27;94244.03;5013422;28;20088;-47
2020/12/11 08:14:40;;;;;;;31.65;16.10;;;;;;;1.60;72.14;94230.63;5014190;28;20132;-48
2020/12/11 08:17:11;;;;;;;30.45;15.85;;;;;;;1.66;72.79;94238.44;5013125;28;20132;-47
2020/12/11 08:19:39;;;;;;;30.35;15.60;;;;;;;1.61;72.69;94244.72;5014003;28;20054;-47
2020/12/11 08:22:16;;;;;;;28.55;15.32;;;;;;;1.67;72.63;94234.69;5013781;28;20056;-50
2020/12/11 08:24:44;;;;;;;29.67;15.40;;;;;;;1.51;73.48;94234.41;5013824;28;20061;-45
2020/12/11 08:27:21;;;;;;;29.00;15.82;;;;;;;1.64;73.37;94234.22;5013323;28;20077;-44
2020/12/11 08:30:12;;;;;;;31.73;15.93;;;;;;;1.74;73.14;94224.31;5014041;28;20057;-47
2020/12/11 08:32:39;;;;;;;30.30;14.70;;;;;;;1.85;72.28;94225.53;5013844;28;20125;-50
2020/12/11 08:35:13;;;;;;;30.38;15.40;;;;;;;1.88;72.61;94230.22;5013465;28;20077;-51
2020/12/11 08:37:52;;;;;;;28.98;15.88;;;;;;;1.96;72.21;94232.09;5013101;28;20430;-49
2020/12/11 08:40:19;;;;;;;27.23;14.40;;;;;;;1.82;72.10;94234.16;5012343;28;20050;-46
2020/12/11 08:48:56;;;;;;;26.53;13.53;;;;;;;2.01;72.21;94213.22;5013784;28;20077;-48
2020/12/11 08:51:23;;;;;;;29.10;15.38;;;;;;;2.15;71.17;94217.59;5013476;28;20745;-49
2020/12/11 08:53:53;;;;;;;28.08;14.50;;;;;;;2.15;71.22;94225.59;5013403;28;20081;-51
2020/12/11 08:56:36;;;;;;;27.60;13.98;;;;;;;2.24;71.01;94207.66;5013056;28;20054;-45
2020/12/11 08:59:03;;;;;;;25.63;13.77;;;;;;;2.17;71.07;94220.72;5013203;28;20084;-46
2020/12/11 09:01:29;;;;;;;24.35;14.27;;;;;;;2.03;71.71;94186.25;5013054;28;20095;-49
2020/12/11 09:03:56;;;;;;;26.90;14.57;;;;;;;2.30;71.01;94201.03;4996306;28;20061;-46
2020/12/11 09:06:23;;;;;;;21.58;13.43;;;;;;;2.22;70.80;94202.63;5011545;28;20503;-48
2020/12/11 09:08:49;;;;;;;26.23;14.38;;;;;;;2.25;71.31;94209.22;5013130;28;20133;-44
2020/12/11 09:11:16;;;;;;;23.55;13.90;;;;;;;2.31;71.40;94207.94;5013056;28;20054;-45
2020/12/11 09:13:43;;;;;;;24.15;14.23;;;;;;;2.41;70.82;94207.56;5013415;28;20654;-49
2020/12/11 09:16:10;;;;;;;24.65;12.90;;;;;;;2.58;70.46;94204.81;5012752;28;20213;-47
2020/12/11 09:18:37;;;;;;;23.58;13.20;;;;;;;2.47;70.02;94192.94;5013529;28;20499;-45
2020/12/11 09:21:03;;;;;;;22.55;13.00;;;;;;;2.36;70.32;94193.63;5012216;28;20392;-47
2020/12/11 09:23:30;;;;;;;24.05;13.40;;;;;;;2.27;70.46;94191.00;5011828;28;20042;-46
2020/12/11 09:25:57;;;;;;;20.83;12.65;;;;;;;2.11;71.05;94174.75;5012491;28;20107;-48
2020/12/11 09:28:24;;;;;;;24.13;13.18;;;;;;;1.97;71.24;94137.63;5011659;28;20046;-47
2020/12/11 09:30:51;;;;;;;21.80;12.18;;;;;;;2.23;70.91;94158.06;5013003;28;20120;-49
2020/12/11 09:33:21;;;;;;;24.52;13.02;;;;;;;2.52;70.27;94168.72;5011943;28;20057;-47
2020/12/11 09:35:48;;;;;;;22.55;12.63;;;;;;;2.55;70.23;94168.06;4994481;28;20061;-50
2020/12/11 09:38:15;;;;;;;22.00;13.18;;;;;;;2.47;70.81;94163.59;5012668;28;20068;-46
2020/12/11 09:56:05;;;;;;;21.13;12.35;;;;;;;2.88;69.11;94118.50;5010829;28;20084;-45
2020/12/11 09:58:34;;;;;;;23.60;11.98;;;;;;;2.99;68.49;94128.47;5012525;28;20060;-45
2020/12/11 10:01:02;;;;;;;20.10;11.70;;;;;;;3.00;68.33;94124.69;5012631;28;20073;-51
2020/12/11 10:03:35;;;;;;;19.77;11.77;;;;;;;3.08;68.10;94120.34;5010600;28;20043;-46
2020/12/11 10:06:06;;;;;;;17.50;10.68;;;;;;;3.17;68.03;94113.06;5011760;28;20132;-47
2020/12/11 10:08:32;;;;;;;21.88;11.07;;;;;;;3.43;67.30;94112.78;5012780;28;20057;-45
2020/12/11 10:10:59;;;;;;;20.63;10.90;;;;;;;3.30;67.08;94092.47;5011301;28;20522;-47
2020/12/11 10:13:26;;;;;;;20.83;11.85;;;;;;;3.43;67.30;94107.44;5012328;28;20172;-44
2020/12/11 10:15:53;;;;;;;19.83;11.68;;;;;;;3.28;66.38;94078.66;5011363;28;20085;-49
2020/12/11 10:18:19;;;;;;;18.52;11.48;;;;;;;3.40;66.45;94100.06;5012283;28;20077;-49
2020/12/11 10:20:46;;;;;;;21.83;11.27;;;;;;;3.35;66.82;94094.97;5012408;28;20078;-49
2020/12/11 10:23:13;;;;;;;21.98;11.27;;;;;;;3.43;66.54;94086.03;5012182;28;20068;-49
2020/12/11 10:25:39;;;;;;;18.55;10.63;;;;;;;3.47;65.91;94080.81;5011448;28;20157;-45
2020/12/11 10:28:06;;;;;;;20.08;10.13;;;;;;;3.34;66.28;94076.56;5010877;28;20045;-50
2020/12/11 10:30:32;;;;;;;18.63;10.80;;;;;;;3.35;66.20;94075.44;5012654;28;20062;-49
2020/12/11 10:32:59;;;;;;;16.15;9.13;;;;;;;3.34;65.36;94058.63;5011020;28;20046;-45
2020/12/11 10:35:25;;;;;;;19.60;10.43;;;;;;;3.40;65.61;94073.34;5010500;28;20399;-48
2020/12/11 10:37:53;;;;;;;16.77;10.77;;;;;;;3.28;66.09;94058.09;5010878;28;20154;-46
2020/12/11 10:40:19;;;;;;;18.10;10.60;;;;;;;3.58;66.25;94071.25;5012449;28;20494;-50
2020/12/11 10:42:46;;;;;;;18.85;11.60;;;;;;;3.70;65.69;94071.25;5012425;28;20074;-48
2020/12/11 10:45:12;;;;;;;18.73;10.88;;;;;;;3.85;65.42;94072.50;5012214;28;20046;-48
2020/12/11 10:47:42;;;;;;;19.58;11.27;;;;;;;3.98;64.84;94067.91;5012581;28;20066;-46
2020/12/11 10:50:09;;;;;;;19.92;11.73;;;;;;;4.21;64.92;94073.56;5012712;28;20132;-47
2020/12/11 10:52:35;;;;;;;19.35;10.55;;;;;;;4.14;64.22;94068.03;5012573;28;20053;-45
2020/12/11 10:55:02;;;;;;;16.40;10.82;;;;;;;4.27;63.77;94072.22;5013151;28;20062;-47
2020/12/11 10:57:29;;;;;;;18.75;11.50;;;;;;;4.26;63.68;94070.69;5013165;28;20050;-47
2020/12/11 10:59:56;;;;;;;16.27;10.25;;;;;;;4.36;63.30;94074.78;5013518;28;20128;-49
2020/12/11 11:02:22;;;;;;;19.17;11.00;;;;;;;4.35;63.43;94055.25;5012641;28;20054;-45
2020/12/11 11:04:49;;;;;;;17.65;10.77;;;;;;;4.53;62.70;94063.03;5012395;28;20065;-45
2020/12/11 11:07:21;;;;;;;18.88;12.00;;;;;;;4.52;63.20;94059.59;5011895;28;20053;-44
2020/12/11 11:10:00;;;;;;;19.58;11.18;;;;;;;4.44;63.67;94044.41;5015669;28;20057;-49
2020/12/11 11:12:33;;;;;;;18.10;10.25;;;;;;;4.65;63.47;94046.94;5016292;28;20056;-45
2020/12/11 11:22:45;;;;;;;19.77;13.13;;;;;;;4.47;63.96;94043.75;5015439;28;20474;-47
2020/12/11 11:27:53;;;;;;;19.38;12.52;;;;;;;4.49;64.09;94046.09;5015198;28;20446;-51
2020/12/11 11:30:21;;;;;;;18.95;11.63;;;;;;;4.44;64.04;94045.19;5014702;28;20160;-45
2020/12/11 11:32:51;;;;;;;17.67;10.27;;;;;;;4.38;63.98;94051.91;5014230;28;20069;-48
2020/12/11 11:35:17;;;;;;;16.88;10.52;;;;;;;4.17;64.60;94044.03;5014846;28;20305;-45
2020/12/11 11:37:44;;;;;;;17.75;10.77;;;;;;;3.99;64.88;94040.81;5015309;28;20470;-48
2020/12/11 11:40:11;;;;;;;18.70;11.65;;;;;;;4.09;64.66;94049.50;5015350;28;20057;-44
2020/12/11 11:42:37;;;;;;;18.90;11.55;;;;;;;4.30;64.36;94047.47;5015740;28;20129;-47
2020/12/11 11:45:06;;;;;;;18.85;11.80;;;;;;;4.07;65.31;94027.66;5015155;28;20081;-46
2020/12/11 11:47:36;;;;;;;21.35;11.63;;;;;;;4.53;64.39;94034.34;5014420;28;20084;-51
2020/12/11 11:52:48;;;;;;;20.08;12.30;;;;;;;4.43;64.46;94030.25;5015416;28;20066;-48
2020/12/11 11:55:15;;;;;;;20.02;11.85;;;;;;;4.27;63.96;94026.72;5015034;28;20065;-49
2020/12/11 11:57:42;;;;;;;22.15;12.02;;;;;;;4.42;63.83;94044.00;5015467;28;20053;-47
2020/12/11 12:00:10;;;;;;;19.13;11.98;;;;;;;3.77;65.81;94046.66;5014961;28;20081;-46
2020/12/11 12:02:37;;;;;;;19.50;11.70;;;;;;;4.10;65.54;94051.09;5014494;28;20411;-46
2020/12/11 12:05:05;;;;;;;19.15;11.98;;;;;;;3.98;65.97;94036.59;5014998;28;20054;-44
2020/12/11 12:07:33;;;;;;;18.67;11.70;;;;;;;4.24;65.03;94034.66;5014017;28;20050;-44